Time;durP1;ratioP1;P1;durP2;ratioP2;P2;SDS_P1;SDS_P2;PMS_P1;PMS_P2;Temp;Humidity;BMP_temperature;BMP_pressure;BME280_temperature;BME280_humidity;BME280_pressure;Samples;Min_cycle;Max_cycle;Signal;HPM_P1;HPM_P2
2023/03/01 00:02:05;;;;;;;22.35;11.20;;;;;;;;;;5068091;28;20044;-58
2023/03/01 00:04:30;;;;;;;23.45;10.63;;;;;;;;;;5068628;28;20090;-58
2023/03/01 00:06:56;;;;;;;24.15;11.77;;;;;;;;;;5066910;28;20107;-58
2023/03/01 00:09:21;;;;;;;24.08;11.32;;;;;;;;;;5066545;28;20539;-59
2023/03/01 00:11:48;;;;;;;29.45;12.00;;;;;;;;;;5066735;28;20020;-58
2023/03/01 00:14:16;;;;;;;26.58;11.20;;;;;;;;;;5068441;28;20025;-59
2023/03/01 00:16:42;;;;;;;25.67;11.40;;;;;;;;;;5068185;28;20031;-59
2023/03/01 00:19:15;;;;;;;25.00;11.23;;;;;;;;;;5068488;28;20490;-59
2023/03/01 00:21:41;;;;;;;25.88;10.90;;;;;;;;;;5068043;28;20028;-59
2023/03/01 00:24:06;;;;;;;27.95;11.50;;;;;;;;;;5067864;28;20035;-60
2023/03/01 00:26:32;;;;;;;29.02;12.55;;;;;;;;;;5067666;28;20024;-60
2023/03/01 00:28:58;;;;;;;28.55;11.38;;;;;;;;;;5066478;28;20032;-58
2023/03/01 00:31:29;;;;;;;26.00;12.43;;;;;;;;;;5067280;28;20547;-59
2023/03/01 00:33:57;;;;;;;28.02;12.80;;;;;;;;;;5067017;28;20421;-59
2023/03/01 00:36:28;;;;;;;23.02;10.57;;;;;;;;;;5066453;28;20024;-57
2023/03/01 00:38:53;;;;;;;25.80;11.60;;;;;;;;;;5065657;28;20025;-59
2023/03/01 00:41:20;;;;;;;26.80;11.98;;;;;;;;;;5068032;28;20082;-59
2023/03/01 00:43:46;;;;;;;26.05;11.75;;;;;;;;;;5066851;28;20031;-59
2023/03/01 00:46:17;;;;;;;27.52;13.07;;;;;;;;;;5067816;28;20021;-59
2023/03/01 00:48:43;;;;;;;26.10;12.00;;;;;;;;;;5064905;28;20028;-59
2023/03/01 00:51:21;;;;;;;23.45;12.23;;;;;;;;;;5067141;28;20513;-59
2023/03/01 00:53:47;;;;;;;28.65;12.70;;;;;;;;;;5067284;28;20414;-59
2023/03/01 00:56:14;;;;;;;27.35;11.35;;;;;;;;;;5066912;28;20044;-59
2023/03/01 00:58:39;;;;;;;22.20;10.98;;;;;;;;;;5065634;28;20059;-58
2023/03/01 01:01:17;;;;;;;26.15;11.73;;;;;;;;;;5067097;28;20111;-59
2023/03/01 01:03:45;;;;;;;26.63;11.60;;;;;;;;;;5067031;28;20036;-59
2023/03/01 01:06:21;;;;;;;26.42;12.70;;;;;;;;;;5066621;28;20029;-54
2023/03/01 01:08:47;;;;;;;24.77;12.00;;;;;;;;;;5067341;28;20051;-55
2023/03/01 01:11:13;;;;;;;30.73;13.23;;;;;;;;;;5066386;28;20379;-54
2023/03/01 01:13:39;;;;;;;24.23;11.13;;;;;;;;;;5068264;28;20028;-55
2023/03/01 01:16:06;;;;;;;27.85;12.57;;;;;;;;;;5066848;28;20025;-56
2023/03/01 01:18:31;;;;;;;26.45;12.18;;;;;;;;;;5065921;28;20119;-55
2023/03/01 01:20:57;;;;;;;25.00;11.57;;;;;;;;;;5068525;28;20178;-54
2023/03/01 01:23:22;;;;;;;24.30;11.25;;;;;;;;;;5050688;28;20036;-54
2023/03/01 01:25:47;;;;;;;26.15;12.00;;;;;;;;;;5068195;28;20111;-55
2023/03/01 01:28:13;;;;;;;28.73;12.25;;;;;;;;;;5066344;28;20332;-54
2023/03/01 01:30:38;;;;;;;31.05;12.73;;;;;;;;;;5065934;28;20043;-55
2023/03/01 01:33:04;;;;;;;34.65;13.35;;;;;;;;;;5068085;28;20401;-55
2023/03/01 01:35:29;;;;;;;29.92;12.05;;;;;;;;;;5066751;28;20389;-55
2023/03/01 01:37:55;;;;;;;28.23;12.27;;;;;;;;;;5066210;28;20111;-55
2023/03/01 01:40:20;;;;;;;28.98;12.00;;;;;;;;;;5065262;28;20024;-55
2023/03/01 01:42:45;;;;;;;29.13;12.60;;;;;;;;;;5070469;28;20100;-55
2023/03/01 01:45:29;;;;;;;31.13;13.55;;;;;;;;;;5070129;28;20017;-55
2023/03/01 01:47:59;;;;;;;26.40;13.02;;;;;;;;;;5069430;28;20033;-54
2023/03/01 01:50:25;;;;;;;30.52;12.10;;;;;;;;;;5069528;28;20067;-56
2023/03/01 01:52:53;;;;;;;27.05;12.95;;;;;;;;;;5072512;28;20094;-55
2023/03/01 01:55:23;;;;;;;29.88;12.98;;;;;;;;;;5070962;28;20056;-53
2023/03/01 01:57:52;;;;;;;29.13;12.52;;;;;;;;;;5070239;28;20029;-55
2023/03/01 02:00:23;;;;;;;32.15;13.90;;;;;;;;;;5071647;28;20060;-54
2023/03/01 02:02:54;;;;;;;33.65;13.40;;;;;;;;;;5070237;28;20032;-55
2023/03/01 02:05:32;;;;;;;30.70;12.68;;;;;;;;;;5071820;28;20020;-58
2023/03/01 02:07:58;;;;;;;30.98;13.40;;;;;;;;;;5069645;28;20116;-58
2023/03/01 02:10:25;;;;;;;29.05;13.10;;;;;;;;;;5068856;28;20095;-59
2023/03/01 02:12:51;;;;;;;29.55;12.85;;;;;;;;;;5070189;28;20097;-58
2023/03/01 02:15:17;;;;;;;34.13;14.38;;;;;;;;;;5070355;28;20040;-59
2023/03/01 02:17:42;;;;;;;30.92;13.55;;;;;;;;;;5069340;28;20106;-59
2023/03/01 02:20:40;;;;;;;30.55;13.00;;;;;;;;;;5071004;28;20493;-58
2023/03/01 02:23:07;;;;;;;31.63;13.95;;;;;;;;;;5066714;28;20035;-59
2023/03/01 02:25:40;;;;;;;29.88;13.25;;;;;;;;;;5069503;28;20031;-59
2023/03/01 02:28:15;;;;;;;30.55;13.98;;;;;;;;;;5070254;28;20036;-58
2023/03/01 02:31:41;;;;;;;34.75;13.88;;;;;;;;;;5066792;28;20032;-58
2023/03/01 02:33:33;;;;;;;32.88;14.60;;;;;;;;;;5070581;28;20044;-58
2023/03/01 02:36:01;;;;;;;;;;;;;;;;;;5070404;28;20032;-59
2023/03/01 02:38:28;;;;;;;40.08;14.02;;;;;;;;;;5069591;28;20249;-58
2023/03/01 02:40:54;;;;;;;30.83;14.13;;;;;;;;;;5069126;28;20468;-58
2023/03/01 02:43:22;;;;;;;32.03;14.80;;;;;;;;;;5069465;28;20032;-58
2023/03/01 02:45:50;;;;;;;36.38;15.55;;;;;;;;;;5070498;28;20024;-56
2023/03/01 02:48:15;;;;;;;29.70;14.82;;;;;;;;;;5070708;28;20454;-57
2023/03/01 02:51:01;;;;;;;35.28;16.90;;;;;;;;;;5069353;28;20044;-57
2023/03/01 02:54:11;;;;;;;34.53;14.85;;;;;;;;;;5068331;28;20020;-58
2023/03/01 02:56:37;;;;;;;38.42;16.20;;;;;;;;;;5068346;28;20108;-57
2023/03/01 02:59:03;;;;;;;49.50;19.05;;;;;;;;;;5068923;28;20119;-58
2023/03/01 03:01:38;;;;;;;55.70;19.55;;;;;;;;;;5069695;28;20365;-58
2023/03/01 03:04:10;;;;;;;51.05;19.27;;;;;;;;;;5069586;28;20051;-58
2023/03/01 03:06:36;;;;;;;34.63;15.82;;;;;;;;;;5070235;28;20108;-58
2023/03/01 03:09:02;;;;;;;40.47;17.00;;;;;;;;;;5052165;28;20115;-58
2023/03/01 03:11:27;;;;;;;41.00;16.77;;;;;;;;;;5068699;28;20485;-59
2023/03/01 03:13:53;;;;;;;37.08;16.98;;;;;;;;;;5070506;28;20040;-58
2023/03/01 03:16:19;;;;;;;38.50;17.35;;;;;;;;;;5070209;28;20063;-56
2023/03/01 03:18:45;;;;;;;38.63;15.85;;;;;;;;;;5069768;28;20020;-59
2023/03/01 03:21:12;;;;;;;40.78;17.63;;;;;;;;;;5069999;28;20185;-59
2023/03/01 03:23:38;;;;;;;36.60;15.93;;;;;;;;;;5070291;28;20111;-59
2023/03/01 03:26:04;;;;;;;46.30;16.33;;;;;;;;;;5067858;28;20025;-59
2023/03/01 03:28:34;;;;;;;38.35;16.52;;;;;;;;;;5068267;28;20047;-58
2023/03/01 03:31:03;;;;;;;42.35;16.95;;;;;;;;;;5069372;28;20554;-58
2023/03/01 03:33:32;;;;;;;42.72;18.27;;;;;;;;;;5065238;28;20039;-58
2023/03/01 03:35:58;;;;;;;40.67;18.63;;;;;;;;;;5067283;28;20031;-58
2023/03/01 03:38:24;;;;;;;54.40;21.88;;;;;;;;;;5067462;28;20024;-58
2023/03/01 03:40:52;;;;;;;62.17;25.50;;;;;;;;;;5067547;28;20127;-59
2023/03/01 03:43:20;;;;;;;60.80;23.85;;;;;;;;;;5070243;28;20024;-58
2023/03/01 03:45:47;;;;;;;52.90;22.55;;;;;;;;;;5066993;28;20019;-59
2023/03/01 03:48:12;;;;;;;44.83;18.58;;;;;;;;;;5064714;28;20043;-59
2023/03/01 03:50:39;;;;;;;41.83;17.17;;;;;;;;;;5067739;28;20119;-59
2023/03/01 03:53:07;;;;;;;40.30;17.23;;;;;;;;;;5068270;28;20150;-58
2023/03/01 03:55:33;;;;;;;39.13;16.48;;;;;;;;;;5065957;28;20066;-58
2023/03/01 03:58:06;;;;;;;48.45;19.88;;;;;;;;;;5066150;28;20178;-59
2023/03/01 04:00:35;;;;;;;46.30;17.70;;;;;;;;;;5062554;28;20024;-59
2023/03/01 04:03:00;;;;;;;47.28;18.30;;;;;;;;;;5069740;28;20063;-59
2023/03/01 04:05:27;;;;;;;43.92;17.65;;;;;;;;;;5069365;28;20025;-58
2023/03/01 04:08:00;;;;;;;46.33;18.73;;;;;;;;;;5067277;28;20024;-59
2023/03/01 04:10:28;;;;;;;43.63;16.95;;;;;;;;;;5068058;28;20024;-59
2023/03/01 04:12:55;;;;;;;52.05;18.80;;;;;;;;;;5069692;28;20031;-59
2023/03/01 04:15:23;;;;;;;49.90;19.23;;;;;;;;;;5067709;28;20025;-58
2023/03/01 04:17:50;;;;;;;42.83;18.60;;;;;;;;;;5068794;28;20048;-59
2023/03/01 04:20:24;;;;;;;46.25;19.45;;;;;;;;;;5068144;28;20020;-58
2023/03/01 04:22:50;;;;;;;48.90;18.92;;;;;;;;;;5069404;28;20067;-58
2023/03/01 04:25:15;;;;;;;47.13;19.52;;;;;;;;;;5066124;28;20024;-59
2023/03/01 04:27:41;;;;;;;53.55;21.15;;;;;;;;;;5067137;28;20048;-58
2023/03/01 04:30:07;;;;;;;47.92;20.38;;;;;;;;;;5067461;28;20024;-58
2023/03/01 04:32:33;;;;;;;57.60;21.25;;;;;;;;;;5032314;28;20370;-58
2023/03/01 04:34:58;;;;;;;49.75;21.60;;;;;;;;;;5066098;28;20036;-58
2023/03/01 04:37:25;;;;;;;56.00;21.02;;;;;;;;;;5069111;28;20025;-58
2023/03/01 04:39:50;;;;;;;48.55;19.75;;;;;;;;;;5067180;28;20103;-59
2023/03/01 04:42:16;;;;;;;50.03;18.45;;;;;;;;;;5068983;28;20158;-58
2023/03/01 04:44:45;;;;;;;50.00;19.35;;;;;;;;;;5068012;28;20033;-59
2023/03/01 04:47:12;;;;;;;49.80;20.50;;;;;;;;;;5064252;28;20478;-60
2023/03/01 04:49:37;;;;;;;49.33;19.60;;;;;;;;;;5067918;28;20317;-58
2023/03/01 04:52:03;;;;;;;50.05;20.10;;;;;;;;;;5068828;28;20016;-58
2023/03/01 04:54:33;;;;;;;48.88;20.17;;;;;;;;;;5068853;28;20024;-58
2023/03/01 04:56:58;;;;;;;52.75;21.48;;;;;;;;;;5050648;28;20031;-57
2023/03/01 04:59:24;;;;;;;50.55;19.70;;;;;;;;;;5050308;28;20024;-58
2023/03/01 05:01:57;;;;;;;57.33;20.70;;;;;;;;;;5068498;28;20028;-58
2023/03/01 05:04:23;;;;;;;59.10;23.33;;;;;;;;;;5069001;28;20032;-55
2023/03/01 05:06:48;;;;;;;62.85;22.08;;;;;;;;;;5075606;28;20017;-58
2023/03/01 05:09:14;;;;;;;57.55;21.17;;;;;;;;;;5067066;28;20025;-58
2023/03/01 05:11:39;;;;;;;59.38;22.05;;;;;;;;;;5069042;28;20016;-58
2023/03/01 05:14:06;;;;;;;54.65;22.25;;;;;;;;;;5047290;28;20123;-58
2023/03/01 05:16:32;;;;;;;62.67;21.77;;;;;;;;;;5065342;28;20548;-58
2023/03/01 05:18:59;;;;;;;59.88;22.08;;;;;;;;;;5072413;28;20029;-58
2023/03/01 05:21:25;;;;;;;55.75;21.80;;;;;;;;;;5072508;28;20509;-59
2023/03/01 05:23:51;;;;;;;55.22;21.65;;;;;;;;;;5072087;28;20036;-58
2023/03/01 05:26:18;;;;;;;56.95;21.60;;;;;;;;;;5069717;28;20492;-57
2023/03/01 05:28:44;;;;;;;59.65;22.45;;;;;;;;;;5071834;28;20028;-59
2023/03/01 05:31:10;;;;;;;54.42;21.38;;;;;;;;;;5071412;28;20086;-58
2023/03/01 05:33:37;;;;;;;54.25;21.25;;;;;;;;;;5070539;28;20135;-58
2023/03/01 05:36:03;;;;;;;53.90;21.20;;;;;;;;;;5070212;28;20458;-58
2023/03/01 05:38:28;;;;;;;55.80;21.67;;;;;;;;;;5070904;28;20036;-56
2023/03/01 05:40:54;;;;;;;56.65;20.83;;;;;;;;;;5070022;28;20119;-57
2023/03/01 05:43:19;;;;;;;60.92;23.10;;;;;;;;;;5054784;28;20021;-58
2023/03/01 05:45:44;;;;;;;57.83;21.80;;;;;;;;;;5070755;28;20023;-57
2023/03/01 05:48:11;;;;;;;59.63;21.58;;;;;;;;;;5070125;28;20028;-58
2023/03/01 05:50:39;;;;;;;61.88;23.85;;;;;;;;;;5061105;28;20079;-58
2023/03/01 05:53:26;;;;;;;59.67;22.17;;;;;;;;;;5076806;28;20015;-58
2023/03/01 05:55:52;;;;;;;63.35;22.98;;;;;;;;;;5071604;28;20647;-58
2023/03/01 05:58:19;;;;;;;53.90;21.70;;;;;;;;;;5062532;28;20051;-59
2023/03/01 06:00:47;;;;;;;60.70;22.25;;;;;;;;;;5070615;28;20016;-58
2023/03/01 06:03:15;;;;;;;55.13;20.67;;;;;;;;;;5067550;28;20020;-58
2023/03/01 06:05:40;;;;;;;58.78;22.60;;;;;;;;;;5069801;28;20017;-58
2023/03/01 06:08:06;;;;;;;62.47;22.33;;;;;;;;;;5068522;28;20021;-57
2023/03/01 06:10:32;;;;;;;63.78;23.02;;;;;;;;;;5051195;28;20020;-58
2023/03/01 06:12:58;;;;;;;60.08;21.30;;;;;;;;;;5095528;28;20483;-58
2023/03/01 06:15:24;;;;;;;66.70;22.67;;;;;;;;;;5068217;28;20574;-58
2023/03/01 06:17:50;;;;;;;63.40;23.23;;;;;;;;;;5067475;28;20030;-57
2023/03/01 06:20:16;;;;;;;61.47;22.17;;;;;;;;;;5067254;28;20096;-58
2023/03/01 06:22:42;;;;;;;58.38;21.23;;;;;;;;;;5066961;28;20020;-57
2023/03/01 06:25:08;;;;;;;71.82;24.70;;;;;;;;;;5066137;28;20035;-59
2023/03/01 06:27:33;;;;;;;71.63;24.45;;;;;;;;;;5030131;28;20028;-59
2023/03/01 06:29:59;;;;;;;64.15;24.02;;;;;;;;;;5062363;28;20051;-57
2023/03/01 06:32:24;;;;;;;67.05;23.45;;;;;;;;;;5065637;28;20078;-59
2023/03/01 06:34:49;;;;;;;61.40;22.02;;;;;;;;;;5051356;28;20036;-59
2023/03/01 06:37:15;;;;;;;61.50;21.83;;;;;;;;;;5063841;28;20119;-58
2023/03/01 06:39:41;;;;;;;62.45;23.17;;;;;;;;;;5067450;28;20551;-57
2023/03/01 06:42:09;;;;;;;66.82;23.55;;;;;;;;;;5067491;28;20016;-58
2023/03/01 06:44:35;;;;;;;69.50;24.92;;;;;;;;;;5070154;28;20115;-59
2023/03/01 06:47:00;;;;;;;62.60;23.23;;;;;;;;;;5064636;28;20120;-59
2023/03/01 06:49:26;;;;;;;75.53;25.23;;;;;;;;;;5068278;28;20024;-59
2023/03/01 06:51:51;;;;;;;70.38;25.83;;;;;;;;;;5066783;28;20025;-59
2023/03/01 06:54:17;;;;;;;61.22;23.42;;;;;;;;;;5067375;28;20051;-59
2023/03/01 06:56:46;;;;;;;81.45;26.63;;;;;;;;;;5069724;28;20397;-59
2023/03/01 06:59:11;;;;;;;68.80;24.92;;;;;;;;;;5066334;28;20052;-59
2023/03/01 07:01:36;;;;;;;72.30;24.98;;;;;;;;;;5069039;28;20052;-59
2023/03/01 07:04:02;;;;;;;65.35;24.88;;;;;;;;;;5068419;28;20422;-59
2023/03/01 07:06:27;;;;;;;62.83;23.42;;;;;;;;;;5051778;28;20028;-58
2023/03/01 07:08:53;;;;;;;59.17;23.75;;;;;;;;;;5069742;28;20060;-59
2023/03/01 07:11:18;;;;;;;60.25;21.77;;;;;;;;;;5068867;28;20157;-58
2023/03/01 07:13:44;;;;;;;59.13;23.35;;;;;;;;;;5068880;28;20092;-59
2023/03/01 07:16:09;;;;;;;70.47;23.73;;;;;;;;;;5069992;28;20029;-57
2023/03/01 07:18:34;;;;;;;67.57;25.52;;;;;;;;;;5066354;28;20035;-59
2023/03/01 07:21:05;;;;;;;67.65;24.70;;;;;;;;;;5052120;28;20029;-59
2023/03/01 07:23:31;;;;;;;72.70;26.98;;;;;;;;;;5069916;28;20016;-58
2023/03/01 07:25:56;;;;;;;69.53;25.20;;;;;;;;;;5067716;28;20073;-59
2023/03/01 07:28:25;;;;;;;67.25;25.40;;;;;;;;;;5066430;28;20143;-58
2023/03/01 07:30:50;;;;;;;66.75;23.98;;;;;;;;;;5070075;28;20036;-59
2023/03/01 07:33:16;;;;;;;69.22;23.77;;;;;;;;;;5069516;28;20052;-59
2023/03/01 07:35:42;;;;;;;70.38;25.90;;;;;;;;;;5034319;28;20081;-59
2023/03/01 07:38:07;;;;;;;67.63;24.67;;;;;;;;;;5051504;28;20127;-58
2023/03/01 07:40:33;;;;;;;79.78;26.63;;;;;;;;;;5067765;28;20123;-59
2023/03/01 07:42:59;;;;;;;62.92;23.45;;;;;;;;;;5069478;28;20435;-59
2023/03/01 07:45:25;;;;;;;75.82;26.15;;;;;;;;;;5069569;28;20030;-58
2023/03/01 07:47:51;;;;;;;70.70;26.50;;;;;;;;;;5066328;28;20517;-59
2023/03/01 07:50:17;;;;;;;69.63;25.10;;;;;;;;;;5068209;28;20048;-57
2023/03/01 07:52:45;;;;;;;72.78;25.95;;;;;;;;;;5032342;28;20498;-58
2023/03/01 07:55:10;;;;;;;70.53;25.33;;;;;;;;;;5049764;28;20174;-58
2023/03/01 07:57:36;;;;;;;70.38;25.85;;;;;;;;;;5072143;28;20104;-57
2023/03/01 08:00:01;;;;;;;66.18;24.63;;;;;;;;;;5051907;28;20473;-58
2023/03/01 08:02:27;;;;;;;75.13;27.00;;;;;;;;;;5067772;28;20027;-58
2023/03/01 08:04:52;;;;;;;72.55;24.77;;;;;;;;;;5068673;28;20028;-57
2023/03/01 08:07:17;;;;;;;67.38;24.08;;;;;;;;;;5068878;28;20021;-58
2023/03/01 08:09:43;;;;;;;67.45;24.92;;;;;;;;;;5067869;28;20374;-57
2023/03/01 08:12:08;;;;;;;69.72;24.80;;;;;;;;;;5067886;28;20064;-58
2023/03/01 08:14:33;;;;;;;71.97;25.48;;;;;;;;;;5068780;28;20016;-59
2023/03/01 08:16:59;;;;;;;71.57;27.23;;;;;;;;;;5068906;28;20060;-58
2023/03/01 08:19:24;;;;;;;72.75;25.08;;;;;;;;;;5067979;28;20046;-58
2023/03/01 08:21:50;;;;;;;68.13;24.13;;;;;;;;;;5067778;28;20541;-58
2023/03/01 08:24:15;;;;;;;69.15;24.98;;;;;;;;;;5067258;28;20077;-58
2023/03/01 08:26:41;;;;;;;71.00;25.60;;;;;;;;;;5051066;28;20116;-58
2023/03/01 08:29:06;;;;;;;72.85;25.52;;;;;;;;;;5066748;28;20037;-58
2023/03/01 08:31:38;;;;;;;71.05;25.05;;;;;;;;;;5034056;28;20054;-58
2023/03/01 08:34:09;;;;;;;72.88;26.80;;;;;;;;;;5065834;28;20059;-58
2023/03/01 08:36:38;;;;;;;70.65;24.45;;;;;;;;;;5067542;28;20028;-58
2023/03/01 08:39:04;;;;;;;69.85;25.48;;;;;;;;;;5065815;28;20040;-58
2023/03/01 08:41:30;;;;;;;73.97;25.08;;;;;;;;;;5067944;28;20063;-58
2023/03/01 08:43:58;;;;;;;99.68;31.48;;;;;;;;;;5069339;28;20052;-58
2023/03/01 08:46:36;;;;;;;93.60;31.98;;;;;;;;;;5067857;28;20017;-58
2023/03/01 08:49:06;;;;;;;84.70;30.60;;;;;;;;;;5070544;28;20033;-58
2023/03/01 08:51:36;;;;;;;77.35;28.98;;;;;;;;;;5067256;28;20073;-58
2023/03/01 08:54:03;;;;;;;71.97;27.63;;;;;;;;;;5067472;28;20082;-58
2023/03/01 08:56:28;;;;;;;65.05;24.85;;;;;;;;;;5075510;28;20049;-58
2023/03/01 08:58:54;;;;;;;69.18;25.05;;;;;;;;;;5065813;28;20034;-60
2023/03/01 09:01:19;;;;;;;73.38;25.83;;;;;;;;;;5068273;28;20457;-58
2023/03/01 09:03:45;;;;;;;84.22;28.75;;;;;;;;;;5067420;28;20033;-59
2023/03/01 09:06:12;;;;;;;73.18;28.25;;;;;;;;;;5097307;28;20021;-59
2023/03/01 09:08:42;;;;;;;82.78;29.73;;;;;;;;;;5066347;28;20021;-60
2023/03/01 09:11:10;;;;;;;74.88;26.55;;;;;;;;;;5067705;28;20025;-59
2023/03/01 09:13:36;;;;;;;67.00;25.77;;;;;;;;;;5068274;28;20477;-59
2023/03/01 09:16:04;;;;;;;67.13;25.20;;;;;;;;;;5066331;28;20028;-59
2023/03/01 09:18:29;;;;;;;76.32;28.33;;;;;;;;;;5065465;28;20497;-59
2023/03/01 09:21:09;;;;;;;67.63;26.92;;;;;;;;;;5067797;28;20060;-60
2023/03/01 09:23:38;;;;;;;90.40;30.70;;;;;;;;;;5066861;28;20033;-58
2023/03/01 09:26:05;;;;;;;102.68;31.33;;;;;;;;;;5068047;28;20435;-58
2023/03/01 09:28:31;;;;;;;80.88;30.45;;;;;;;;;;5066501;28;20169;-59
2023/03/01 09:31:00;;;;;;;76.22;29.00;;;;;;;;;;5066131;28;21917;-58
2023/03/01 09:33:27;;;;;;;72.40;26.60;;;;;;;;;;5066745;28;20024;-60
2023/03/01 09:36:04;;;;;;;67.18;25.33;;;;;;;;;;5067435;28;20025;-60
2023/03/01 09:38:30;;;;;;;72.32;26.27;;;;;;;;;;5044710;28;20042;-59
2023/03/01 09:40:56;;;;;;;72.78;26.52;;;;;;;;;;5068451;28;20021;-59
2023/03/01 09:43:38;;;;;;;69.93;25.83;;;;;;;;;;5067792;28;20024;-61
2023/03/01 09:46:09;;;;;;;69.60;25.98;;;;;;;;;;5069364;28;20110;-57
2023/03/01 09:48:43;;;;;;;63.13;24.30;;;;;;;;;;5048373;28;20562;-59
2023/03/01 09:51:17;;;;;;;67.05;25.77;;;;;;;;;;5065600;28;20426;-58
2023/03/01 09:53:42;;;;;;;62.35;23.80;;;;;;;;;;5064694;28;20027;-59
2023/03/01 09:56:22;;;;;;;67.82;23.75;;;;;;;;;;5066513;28;20502;-58
2023/03/01 09:58:59;;;;;;;66.53;25.13;;;;;;;;;;5062817;28;20539;-59
2023/03/01 10:01:40;;;;;;;66.78;24.58;;;;;;;;;;5066871;28;20041;-57
2023/03/01 10:04:25;;;;;;;63.40;24.60;;;;;;;;;;5053125;28;20342;-58
2023/03/01 10:07:07;;;;;;;60.95;23.67;;;;;;;;;;5067851;28;20048;-59
2023/03/01 10:09:35;;;;;;;60.70;22.65;;;;;;;;;;5069146;28;20029;-59
2023/03/01 10:12:02;;;;;;;59.65;22.50;;;;;;;;;;5070036;28;20037;-59
2023/03/01 10:14:36;;;;;;;59.92;22.58;;;;;;;;;;5089531;28;20026;-59
2023/03/01 10:17:08;;;;;;;62.15;23.15;;;;;;;;;;5070785;28;20482;-59
2023/03/01 10:19:34;;;;;;;64.40;24.23;;;;;;;;;;5087129;28;20028;-59
2023/03/01 10:22:13;;;;;;;63.55;24.02;;;;;;;;;;5070543;28;20056;-59
2023/03/01 10:24:39;;;;;;;59.58;22.83;;;;;;;;;;5070767;28;20028;-59
2023/03/01 10:27:11;;;;;;;58.47;22.88;;;;;;;;;;5069254;28;20024;-58
2023/03/01 10:29:57;;;;;;;59.55;23.13;;;;;;;;;;5069892;28;20056;-58
2023/03/01 10:32:22;;;;;;;59.30;23.13;;;;;;;;;;5069536;28;20481;-59
2023/03/01 10:34:48;;;;;;;60.80;23.65;;;;;;;;;;5051592;28;20120;-58
2023/03/01 10:37:15;;;;;;;56.78;21.80;;;;;;;;;;5070291;28;20074;-59
2023/03/01 10:40:05;;;;;;;56.42;22.75;;;;;;;;;;5069610;28;20039;-59
2023/03/01 10:42:46;;;;;;;54.17;22.75;;;;;;;;;;5067497;28;20025;-59
2023/03/01 10:45:29;;;;;;;49.53;20.70;;;;;;;;;;5068651;28;20552;-59
2023/03/01 10:48:19;;;;;;;49.60;21.77;;;;;;;;;;5069139;28;20123;-59
2023/03/01 10:50:46;;;;;;;53.10;22.30;;;;;;;;;;5069783;28;20078;-59
2023/03/01 10:53:21;;;;;;;56.35;22.52;;;;;;;;;;5070933;28;20032;-59
2023/03/01 10:55:47;;;;;;;47.58;21.75;;;;;;;;;;5068165;28;20170;-59
2023/03/01 10:58:22;;;;;;;50.22;22.67;;;;;;;;;;5050502;28;20103;-59
2023/03/01 11:00:54;;;;;;;51.58;21.83;;;;;;;;;;5069108;28;20443;-57
2023/03/01 11:03:25;;;;;;;55.67;22.45;;;;;;;;;;5066150;28;20035;-59
2023/03/01 11:05:59;;;;;;;45.75;20.10;;;;;;;;;;5067659;28;20032;-57
2023/03/01 11:08:35;;;;;;;49.65;21.02;;;;;;;;;;5066445;28;20043;-57
2023/03/01 11:11:05;;;;;;;50.38;21.48;;;;;;;;;;5069650;28;20028;-58
2023/03/01 11:13:30;;;;;;;44.83;19.63;;;;;;;;;;5066479;28;20020;-59
2023/03/01 11:16:02;;;;;;;49.17;20.67;;;;;;;;;;5066815;28;20055;-58
2023/03/01 11:18:30;;;;;;;48.58;21.15;;;;;;;;;;5065487;28;20028;-59
2023/03/01 11:20:58;;;;;;;50.67;23.17;;;;;;;;;;5089846;28;20051;-59
2023/03/01 11:23:24;;;;;;;47.35;22.10;;;;;;;;;;5065434;28;20044;-57
2023/03/01 11:25:58;;;;;;;49.17;21.98;;;;;;;;;;5067429;28;20056;-59
2023/03/01 11:28:26;;;;;;;45.22;21.40;;;;;;;;;;5051867;28;20028;-57
2023/03/01 11:30:54;;;;;;;44.47;20.25;;;;;;;;;;5067196;28;20102;-59
2023/03/01 11:33:44;;;;;;;45.63;21.77;;;;;;;;;;5068639;28;20036;-60
2023/03/01 11:36:13;;;;;;;51.55;22.92;;;;;;;;;;5067883;28;20383;-59
2023/03/01 11:38:39;;;;;;;50.03;23.17;;;;;;;;;;5067626;28;20024;-59
2023/03/01 11:41:07;;;;;;;52.53;22.48;;;;;;;;;;5067990;28;20166;-58
2023/03/01 11:43:33;;;;;;;55.20;23.63;;;;;;;;;;5069439;28;20035;-59
2023/03/01 11:46:20;;;;;;;43.90;20.27;;;;;;;;;;5067081;28;20021;-59
2023/03/01 11:49:07;;;;;;;48.33;21.25;;;;;;;;;;5061698;28;20020;-60
2023/03/01 11:52:05;;;;;;;41.15;18.67;;;;;;;;;;5067131;28;20104;-59
2023/03/01 11:54:49;;;;;;;42.70;19.47;;;;;;;;;;5064673;28;20525;-60
2023/03/01 11:57:30;;;;;;;36.95;18.77;;;;;;;;;;5068023;28;20032;-58
2023/03/01 12:00:20;;;;;;;40.83;19.15;;;;;;;;;;5067088;28;20020;-58
2023/03/01 12:03:12;;;;;;;41.38;19.92;;;;;;;;;;5066265;28;20063;-59
2023/03/01 12:06:03;;;;;;;41.75;19.63;;;;;;;;;;5055448;28;20035;-59
2023/03/01 12:08:51;;;;;;;38.03;18.48;;;;;;;;;;5066693;28;20028;-60
2023/03/01 12:11:21;;;;;;;38.42;18.35;;;;;;;;;;5066685;28;20039;-58
2023/03/01 12:13:58;;;;;;;39.08;19.98;;;;;;;;;;5066139;28;20028;-59
2023/03/01 12:16:33;;;;;;;39.30;18.30;;;;;;;;;;5067912;28;20474;-59
2023/03/01 12:19:13;;;;;;;37.22;18.63;;;;;;;;;;5064913;28;20037;-59
2023/03/01 12:21:47;;;;;;;40.45;18.80;;;;;;;;;;5057766;28;20540;-59
2023/03/01 12:24:18;;;;;;;32.67;17.05;;;;;;;;;;5064667;28;20124;-60
2023/03/01 12:27:11;;;;;;;41.50;19.75;;;;;;;;;;5065702;28;20444;-60
2023/03/01 12:29:58;;;;;;;35.95;18.00;;;;;;;;;;5059085;28;20039;-59
2023/03/01 12:32:56;;;;;;;38.90;19.77;;;;;;;;;;5066530;28;20024;-59
2023/03/01 12:35:43;;;;;;;37.17;18.13;;;;;;;;;;5039856;28;20055;-59
2023/03/01 12:38:37;;;;;;;38.22;17.70;;;;;;;;;;5063932;28;20028;-59
2023/03/01 12:41:28;;;;;;;39.20;20.33;;;;;;;;;;5066123;28;20038;-59
2023/03/01 12:44:08;;;;;;;47.20;20.92;;;;;;;;;;5061608;28;20202;-59
2023/03/01 12:46:43;;;;;;;41.60;20.13;;;;;;;;;;5064599;28;20028;-57
2023/03/01 12:49:25;;;;;;;39.88;18.65;;;;;;;;;;5065750;28;20504;-60
2023/03/01 12:51:59;;;;;;;39.38;19.88;;;;;;;;;;5065919;28;20074;-58
2023/03/01 12:54:30;;;;;;;37.20;18.17;;;;;;;;;;5064842;28;20032;-59
2023/03/01 12:57:03;;;;;;;35.97;19.42;;;;;;;;;;5064489;28;20041;-59
2023/03/01 12:59:28;;;;;;;34.20;17.23;;;;;;;;;;5067892;28;20056;-59
2023/03/01 13:02:03;;;;;;;30.20;16.80;;;;;;;;;;5066821;28;20086;-59
2023/03/01 13:04:47;;;;;;;34.80;17.70;;;;;;;;;;5067072;28;20059;-59
2023/03/01 13:07:27;;;;;;;33.25;17.85;;;;;;;;;;5066270;28;20032;-58
2023/03/01 13:10:25;;;;;;;31.85;17.00;;;;;;;;;;5067740;28;20385;-57
2023/03/01 13:12:53;;;;;;;37.92;18.52;;;;;;;;;;5063670;28;20028;-59
2023/03/01 13:15:24;;;;;;;35.72;17.45;;;;;;;;;;5065350;28;20025;-59
2023/03/01 13:17:51;;;;;;;31.52;16.80;;;;;;;;;;5066470;28;20471;-60
2023/03/01 13:20:18;;;;;;;33.35;17.63;;;;;;;;;;5053620;28;20060;-59
2023/03/01 13:22:45;;;;;;;34.00;17.38;;;;;;;;;;5067340;28;20485;-58
2023/03/01 13:25:13;;;;;;;33.10;18.75;;;;;;;;;;5065419;28;20074;-60
2023/03/01 13:27:38;;;;;;;32.42;17.27;;;;;;;;;;5065814;28;20020;-60
2023/03/01 13:30:05;;;;;;;33.40;18.33;;;;;;;;;;5063188;28;20032;-60
2023/03/01 13:32:39;;;;;;;37.10;19.67;;;;;;;;;;5062338;28;20028;-60
2023/03/01 13:35:14;;;;;;;38.60;19.50;;;;;;;;;;5063926;28;20040;-58
2023/03/01 13:37:41;;;;;;;39.95;20.00;;;;;;;;;;5063222;28;20033;-58
2023/03/01 13:40:16;;;;;;;41.05;21.08;;;;;;;;;;5053605;28;20112;-58
2023/03/01 13:42:45;;;;;;;37.70;20.83;;;;;;;;;;5063414;28;20047;-58
2023/03/01 13:45:42;;;;;;;34.20;18.08;;;;;;;;;;5067440;28;20009;-60
2023/03/01 13:48:25;;;;;;;35.40;18.40;;;;;;;;;;5060802;28;20032;-58
2023/03/01 13:51:01;;;;;;;35.28;19.13;;;;;;;;;;5065499;28;20037;-59
2023/03/01 13:53:31;;;;;;;34.90;18.58;;;;;;;;;;5048546;28;20055;-58
2023/03/01 13:56:09;;;;;;;35.70;18.92;;;;;;;;;;5066669;28;20107;-60
2023/03/01 13:58:48;;;;;;;35.03;18.58;;;;;;;;;;5068221;28;20043;-58
2023/03/01 14:01:22;;;;;;;39.22;19.80;;;;;;;;;;5071334;28;20020;-58
2023/03/01 14:03:48;;;;;;;40.10;19.90;;;;;;;;;;5064430;28;20036;-59
2023/03/01 14:06:25;;;;;;;37.22;19.98;;;;;;;;;;5066828;28;20032;-57
2023/03/01 14:09:01;;;;;;;35.85;18.33;;;;;;;;;;5052138;28;20033;-60
2023/03/01 14:11:38;;;;;;;37.05;20.25;;;;;;;;;;5072183;28;20032;-61
2023/03/01 14:14:36;;;;;;;32.70;18.58;;;;;;;;;;5070506;28;20482;-60
2023/03/01 14:17:23;;;;;;;37.03;19.80;;;;;;;;;;5067558;28;20359;-60
2023/03/01 14:19:55;;;;;;;33.85;18.17;;;;;;;;;;5069042;28;20279;-61
2023/03/01 14:22:29;;;;;;;34.40;19.15;;;;;;;;;;5069351;28;20048;-60
2023/03/01 14:25:00;;;;;;;30.15;17.73;;;;;;;;;;5069856;28;20085;-60
2023/03/01 14:27:29;;;;;;;31.45;17.60;;;;;;;;;;5082880;28;20369;-59
2023/03/01 14:30:02;;;;;;;36.80;19.48;;;;;;;;;;5070178;28;20024;-61
2023/03/01 14:32:30;;;;;;;34.20;18.77;;;;;;;;;;5070990;28;20215;-60
2023/03/01 14:34:57;;;;;;;33.53;18.73;;;;;;;;;;5072851;28;20533;-59